Time;durP1;ratioP1;P1;durP2;ratioP2;P2;SDS_P1;SDS_P2;PMS_P1;PMS_P2;Temp;Humidity;BMP_temperature;BMP_pressure;BME280_temperature;BME280_humidity;BME280_pressure;Samples;Min_cycle;Max_cycle;Signal;HPM_P1;HPM_P2
2022/05/24 00:01:04;;;;;;;1.50;1.00;;;16.30;98.20;;;;;;5019890;28;20471;-79
2022/05/24 00:03:31;;;;;;;1.50;1.00;;;16.30;98.20;;;;;;5026216;28;20479;-78
2022/05/24 00:05:58;;;;;;;1.57;1.10;;;16.20;98.20;;;;;;5022485;28;20463;-79
2022/05/24 00:08:25;;;;;;;1.50;1.00;;;16.20;98.20;;;;;;5021095;28;20713;-79
2022/05/24 00:10:54;;;;;;;1.50;1.00;;;16.30;98.20;;;;;;5011574;28;20732;-78
2022/05/24 00:13:21;;;;;;;1.50;0.90;;;16.30;98.20;;;;;;5032118;28;20487;-78
2022/05/24 00:15:50;;;;;;;1.50;0.90;;;16.30;98.20;;;;;;5020697;28;20476;-78
2022/05/24 00:18:19;;;;;;;1.50;1.00;;;16.30;98.20;;;;;;5024736;28;20522;-79
2022/05/24 00:20:48;;;;;;;1.50;1.00;;;16.30;98.20;;;;;;5020611;28;20472;-79
2022/05/24 00:23:16;;;;;;;1.50;1.10;;;16.30;98.20;;;;;;5022979;28;20957;-79
2022/05/24 00:25:46;;;;;;;1.50;1.00;;;16.40;98.20;;;;;;5019068;28;20487;-79
2022/05/24 00:28:15;;;;;;;1.50;1.00;;;16.40;98.20;;;;;;5009373;28;20473;-79
2022/05/24 00:30:44;;;;;;;1.50;1.00;;;16.40;98.20;;;;;;5018063;28;20474;-79
2022/05/24 00:33:12;;;;;;;1.50;0.97;;;16.40;98.20;;;;;;5017651;28;20473;-79
2022/05/24 00:35:39;;;;;;;1.50;1.00;;;16.40;98.20;;;;;;5015612;28;20498;-79
2022/05/24 00:38:09;;;;;;;1.60;1.47;;;16.40;98.20;;;;;;5003150;28;20546;-79
2022/05/24 00:40:43;;;;;;;1.50;0.93;;;16.30;98.20;;;;;;5015186;28;20980;-79
2022/05/24 00:43:16;;;;;;;1.50;1.00;;;16.30;98.20;;;;;;5020002;28;20460;-79
2022/05/24 00:45:47;;;;;;;1.50;1.00;;;16.20;98.20;;;;;;5020470;28;20479;-79
2022/05/24 00:48:23;;;;;;;1.50;0.90;;;16.20;98.20;;;;;;5021698;28;20488;-79
2022/05/24 00:50:51;;;;;;;1.50;1.00;;;16.20;98.20;;;;;;5020642;28;20471;-79
2022/05/24 00:53:23;;;;;;;1.50;0.90;;;16.20;98.20;;;;;;5015122;28;20841;-79
2022/05/24 00:55:54;;;;;;;1.50;1.00;;;16.20;98.20;;;;;;5018648;28;20464;-79
2022/05/24 00:58:32;;;;;;;1.50;1.00;;;16.30;98.20;;;;;;5021634;28;20787;-79
2022/05/24 01:01:05;;;;;;;1.50;1.00;;;16.30;98.20;;;;;;5019653;28;20459;-78
2022/05/24 01:03:33;;;;;;;1.50;1.00;;;16.30;98.20;;;;;;5022367;28;20468;-79
2022/05/24 01:06:00;;;;;;;1.50;0.90;;;16.30;98.20;;;;;;5005584;28;20471;-79
2022/05/24 01:08:28;;;;;;;1.50;1.10;;;16.30;98.20;;;;;;5015211;28;20814;-79
2022/05/24 01:10:55;;;;;;;1.50;0.90;;;16.30;98.20;;;;;;5017816;28;20472;-79
2022/05/24 01:13:26;;;;;;;1.50;1.00;;;16.30;98.20;;;;;;5015421;28;20488;-79
2022/05/24 01:15:53;;;;;;;1.50;0.90;;;16.30;98.20;;;;;;5010394;28;20960;-79
2022/05/24 01:18:23;;;;;;;1.50;1.00;;;16.30;98.20;;;;;;5017935;28;20484;-79
2022/05/24 01:20:56;;;;;;;1.50;0.90;;;16.30;98.20;;;;;;4996172;28;20618;-79
2022/05/24 01:23:37;;;;;;;2.17;1.27;;;16.30;98.20;;;;;;5031447;28;20492;-79
2022/05/24 01:26:12;;;;;;;1.50;0.90;;;16.30;98.20;;;;;;5017628;28;20464;-79
2022/05/24 01:28:43;;;;;;;1.50;0.90;;;16.30;98.20;;;;;;5012636;28;20514;-79
2022/05/24 01:31:11;;;;;;;1.50;0.90;;;16.20;98.20;;;;;;5009771;28;20541;-79
2022/05/24 01:40:17;;;;;;;2.70;2.23;;;16.10;98.20;;;;;;4971053;28;21039;-79
2022/05/24 01:42:44;;;;;;;1.50;1.00;;;16.10;98.20;;;;;;5012445;28;20507;-79
2022/05/24 01:45:19;;;;;;;1.50;1.00;;;16.00;98.20;;;;;;5015506;28;20831;-79
2022/05/24 01:47:50;;;;;;;1.50;1.00;;;15.90;98.20;;;;;;5015228;28;21168;-79
2022/05/24 01:50:22;;;;;;;1.50;1.00;;;15.90;98.20;;;;;;5012180;28;20534;-78
2022/05/24 01:52:54;;;;;;;1.50;0.97;;;15.90;98.20;;;;;;5013561;28;20511;-79
2022/05/24 01:55:24;;;;;;;1.50;1.00;;;15.90;98.20;;;;;;5011128;28;20464;-79
2022/05/24 01:57:57;;;;;;;1.50;1.00;;;15.80;98.20;;;;;;5056313;22;20499;-77
2022/05/24 02:00:25;;;;;;;1.50;1.00;;;15.80;98.20;;;;;;5040091;28;20537;-77
2022/05/24 02:02:52;;;;;;;1.50;1.00;;;15.70;98.20;;;;;;5038585;28;20455;-77
2022/05/24 02:05:31;;;;;;;1.50;0.97;;;15.70;98.20;;;;;;5042824;28;20485;-77
2022/05/24 02:07:58;;;;;;;1.50;1.00;;;15.70;98.20;;;;;;5050958;28;20480;-77
2022/05/24 02:10:25;;;;;;;1.50;0.90;;;15.70;98.20;;;;;;5062321;28;20457;-77
2022/05/24 02:12:56;;;;;;;1.50;1.00;;;15.60;98.20;;;;;;5051876;28;20574;-77
2022/05/24 02:15:29;;;;;;;1.50;1.00;;;15.60;98.20;;;;;;5051512;28;20458;-77
2022/05/24 02:18:05;;;;;;;1.50;1.00;;;15.60;98.20;;;;;;5053649;28;20929;-77
2022/05/24 02:20:36;;;;;;;1.50;1.00;;;15.70;98.20;;;;;;5051501;28;20990;-77
2022/05/24 02:23:05;;;;;;;1.53;1.00;;;15.70;98.20;;;;;;5051730;28;20466;-77
2022/05/24 02:25:36;;;;;;;1.50;0.93;;;15.70;98.20;;;;;;5061500;28;20985;-77
2022/05/24 02:28:08;;;;;;;1.50;1.00;;;15.70;98.20;;;;;;5050703;28;20517;-77
2022/05/24 02:30:39;;;;;;;1.50;0.97;;;15.70;98.20;;;;;;5057817;28;20844;-77
2022/05/24 02:33:06;;;;;;;1.50;1.00;;;15.60;98.20;;;;;;5054776;28;20713;-77
2022/05/24 02:35:33;;;;;;;1.83;1.30;;;15.60;98.20;;;;;;5051435;28;20520;-77
2022/05/24 02:38:00;;;;;;;1.50;1.00;;;15.60;98.20;;;;;;5053856;28;20813;-77
2022/05/24 02:43:12;;;;;;;1.50;0.90;;;15.60;98.20;;;;;;5047333;28;20454;-77
2022/05/24 02:45:40;;;;;;;1.50;1.00;;;15.50;98.20;;;;;;5049745;28;20833;-77
2022/05/24 02:48:09;;;;;;;1.50;1.00;;;15.50;98.20;;;;;;5055170;28;20489;-77
2022/05/24 02:50:36;;;;;;;1.50;1.00;;;15.50;98.20;;;;;;5059963;28;20945;-77
2022/05/24 02:53:02;;;;;;;1.50;1.00;;;15.50;98.20;;;;;;5049449;28;20487;-77
2022/05/24 02:55:30;;;;;;;1.50;1.00;;;15.40;98.20;;;;;;5049256;28;22441;-77
2022/05/24 02:57:57;;;;;;;1.50;1.00;;;15.40;98.20;;;;;;5057315;28;20512;-77
2022/05/24 03:00:26;;;;;;;1.50;1.00;;;15.40;98.20;;;;;;5059191;28;20518;-77
2022/05/24 03:02:55;;;;;;;1.50;1.00;;;15.40;98.20;;;;;;5021741;28;20483;-77
2022/05/24 03:05:23;;;;;;;1.50;1.00;;;15.40;98.20;;;;;;5061105;28;20656;-76
2022/05/24 03:10:35;;;;;;;1.50;1.00;;;15.40;98.20;;;;;;5058493;28;20502;-77
2022/05/24 03:15:48;;;;;;;1.50;0.97;;;15.40;98.20;;;;;;5049107;28;20469;-77
2022/05/24 03:18:18;;;;;;;1.50;1.00;;;15.40;98.20;;;;;;5057391;28;20520;-77
2022/05/24 03:20:46;;;;;;;1.50;1.00;;;15.40;98.20;;;;;;5056336;28;20950;-77
2022/05/24 03:23:14;;;;;;;1.50;1.00;;;15.40;98.20;;;;;;5072668;28;20459;-77
2022/05/24 03:25:41;;;;;;;1.53;1.00;;;15.40;98.20;;;;;;5054875;28;20461;-76
2022/05/24 03:28:09;;;;;;;1.50;1.00;;;15.40;98.20;;;;;;5049033;28;20581;-77
2022/05/24 03:30:40;;;;;;;1.50;1.10;;;15.40;98.20;;;;;;5047750;28;20610;-77
2022/05/24 03:33:07;;;;;;;1.50;1.00;;;15.40;98.20;;;;;;5052665;28;20481;-77
2022/05/24 03:35:35;;;;;;;1.50;0.97;;;15.40;98.20;;;;;;5051284;28;20693;-77
2022/05/24 03:38:03;;;;;;;1.50;1.00;;;15.40;98.20;;;;;;5051181;28;20527;-77
2022/05/24 03:40:30;;;;;;;1.50;1.00;;;15.40;98.20;;;;;;5051279;28;20454;-77
2022/05/24 03:42:57;;;;;;;1.50;1.00;;;15.40;98.20;;;;;;5044081;28;21066;-77
2022/05/24 03:45:26;;;;;;;1.53;1.00;;;15.40;98.20;;;;;;5047325;28;20896;-77
2022/05/24 03:47:53;;;;;;;1.50;0.90;;;15.30;98.20;;;;;;5033897;28;20482;-77
2022/05/24 03:50:20;;;;;;;1.50;1.00;;;15.30;98.20;;;;;;5057163;28;20502;-76
2022/05/24 03:52:48;;;;;;;1.50;1.00;;;15.30;98.20;;;;;;5050280;28;20887;-76
2022/05/24 03:55:16;;;;;;;1.50;1.00;;;15.30;98.20;;;;;;5050556;28;20574;-76
2022/05/24 03:58:01;;;;;;;1.50;1.00;;;15.20;98.20;;;;;;5057504;28;20488;-76
2022/05/24 04:00:32;;;;;;;1.50;1.00;;;15.20;98.20;;;;;;5063504;28;20490;-76
2022/05/24 04:03:00;;;;;;;1.50;1.00;;;15.20;98.20;;;;;;5054462;28;20481;-76
2022/05/24 04:05:28;;;;;;;1.50;1.00;;;15.20;98.20;;;;;;5051388;28;20889;-76
2022/05/24 04:07:56;;;;;;;1.50;1.00;;;15.20;98.20;;;;;;5052593;28;20535;-76
2022/05/24 04:10:23;;;;;;;1.50;1.10;;;15.20;98.20;;;;;;5053631;28;20674;-77
2022/05/24 04:12:51;;;;;;;1.53;1.03;;;15.20;98.20;;;;;;5031914;28;20577;-76
2022/05/24 04:15:19;;;;;;;1.53;1.00;;;15.20;98.20;;;;;;5050617;28;20485;-77
2022/05/24 04:17:47;;;;;;;1.50;1.00;;;15.20;98.20;;;;;;5024456;28;21321;-77
2022/05/24 04:20:16;;;;;;;1.50;1.00;;;15.10;98.20;;;;;;5056372;28;20553;-76
2022/05/24 04:22:43;;;;;;;1.50;0.90;;;15.10;98.20;;;;;;5021473;28;20514;-76
2022/05/24 04:25:13;;;;;;;1.50;1.00;;;15.10;98.20;;;;;;5035590;28;20464;-76
2022/05/24 04:27:41;;;;;;;1.50;0.90;;;15.10;98.20;;;;;;5040173;28;20939;-75
2022/05/24 04:30:10;;;;;;;1.50;1.00;;;15.00;98.20;;;;;;5034640;28;20544;-75
2022/05/24 04:32:37;;;;;;;1.50;1.00;;;15.00;98.20;;;;;;5033567;28;20529;-76
2022/05/24 04:35:05;;;;;;;1.50;1.00;;;15.00;98.20;;;;;;5036375;28;21030;-76
2022/05/24 04:37:32;;;;;;;1.50;1.00;;;14.90;98.20;;;;;;5044412;28;21126;-76
2022/05/24 04:39:59;;;;;;;1.50;1.00;;;14.90;98.20;;;;;;5042611;28;20556;-77
2022/05/24 04:42:27;;;;;;;1.53;1.00;;;14.80;98.20;;;;;;5038073;28;20887;-77
2022/05/24 04:44:57;;;;;;;1.53;1.00;;;14.80;98.20;;;;;;5029592;28;20975;-77
2022/05/24 04:47:28;;;;;;;1.50;1.00;;;14.80;98.20;;;;;;5006628;28;20554;-77
2022/05/24 04:49:56;;;;;;;1.50;1.00;;;14.70;98.20;;;;;;5033902;28;20688;-77
2022/05/24 04:52:26;;;;;;;1.50;1.00;;;14.60;98.20;;;;;;5028042;28;20455;-76
2022/05/24 04:54:54;;;;;;;1.50;1.00;;;14.60;98.20;;;;;;5031269;28;20857;-77
2022/05/24 04:57:22;;;;;;;1.50;1.00;;;14.60;98.20;;;;;;5031628;28;20720;-76
2022/05/24 04:59:51;;;;;;;1.50;1.00;;;14.50;98.20;;;;;;5025553;28;20521;-76
2022/05/24 05:02:18;;;;;;;1.50;1.00;;;14.50;98.20;;;;;;5031838;28;20529;-76
2022/05/24 05:04:45;;;;;;;1.50;1.00;;;14.50;98.20;;;;;;5038507;28;20462;-77
2022/05/24 05:07:13;;;;;;;1.60;1.20;;;14.50;98.20;;;;;;5032426;28;20510;-77
2022/05/24 05:09:39;;;;;;;1.57;1.10;;;14.50;98.20;;;;;;5027340;28;20835;-77
2022/05/24 05:12:09;;;;;;;1.50;1.00;;;14.50;98.20;;;;;;5030429;28;21047;-77
2022/05/24 05:14:38;;;;;;;1.50;1.00;;;14.50;98.20;;;;;;5031536;28;20482;-76
2022/05/24 05:17:06;;;;;;;1.53;1.10;;;14.50;98.20;;;;;;5023727;28;20502;-77
2022/05/24 05:19:33;;;;;;;1.50;1.00;;;14.50;98.20;;;;;;5032512;28;21128;-77
2022/05/24 05:22:02;;;;;;;1.57;1.00;;;14.50;98.20;;;;;;5027523;28;20467;-76
2022/05/24 05:24:29;;;;;;;1.50;1.03;;;14.50;98.20;;;;;;5033583;28;20860;-76
2022/05/24 05:26:56;;;;;;;1.50;0.97;;;14.50;98.20;;;;;;5033994;28;21017;-76
2022/05/24 05:32:06;;;;;;;1.50;1.00;;;14.40;98.20;;;;;;5025703;28;20447;-76
2022/05/24 05:34:33;;;;;;;1.50;1.00;;;14.40;98.20;;;;;;5028732;28;20616;-75
2022/05/24 05:37:04;;;;;;;1.50;1.00;;;14.30;98.20;;;;;;5027161;28;20597;-75
2022/05/24 05:39:32;;;;;;;1.50;1.00;;;14.30;98.20;;;;;;5025403;28;20696;-76
2022/05/24 05:41:59;;;;;;;1.50;0.90;;;14.20;98.20;;;;;;5029495;28;20982;-76
2022/05/24 05:44:27;;;;;;;1.50;1.00;;;14.20;98.20;;;;;;5030422;28;20959;-76
2022/05/24 05:46:54;;;;;;;1.50;1.00;;;14.20;98.20;;;;;;5034843;28;20518;-77
2022/05/24 05:49:23;;;;;;;1.50;1.00;;;14.10;98.20;;;;;;5031375;28;20495;-76
2022/05/24 05:51:50;;;;;;;1.50;1.00;;;14.10;98.20;;;;;;5028732;28;20920;-76
2022/05/24 05:54:17;;;;;;;1.53;1.00;;;14.00;98.20;;;;;;5026792;28;20689;-76
2022/05/24 05:56:44;;;;;;;1.50;1.00;;;14.00;98.20;;;;;;5031576;28;20494;-76
2022/05/24 05:59:12;;;;;;;1.50;1.00;;;13.90;98.20;;;;;;5033817;28;20466;-76
2022/05/24 06:01:39;;;;;;;1.50;1.00;;;13.90;98.20;;;;;;5027262;28;20465;-76
2022/05/24 06:04:06;;;;;;;1.50;1.00;;;13.80;98.20;;;;;;5037962;28;20466;-76
2022/05/24 06:06:37;;;;;;;1.50;1.00;;;13.80;98.20;;;;;;5020907;28;20497;-76
2022/05/24 06:09:05;;;;;;;1.50;1.00;;;13.70;98.20;;;;;;5035565;28;20772;-76
2022/05/24 06:11:32;;;;;;;1.50;1.00;;;13.70;98.20;;;;;;5035169;28;20565;-76
2022/05/24 06:13:59;;;;;;;1.50;1.00;;;13.60;98.20;;;;;;5037881;28;20578;-76
2022/05/24 06:16:26;;;;;;;1.50;1.00;;;13.60;98.20;;;;;;5028415;28;20467;-76
2022/05/24 06:18:53;;;;;;;1.50;1.00;;;13.60;98.20;;;;;;5028408;28;20926;-75
2022/05/24 06:21:20;;;;;;;1.50;1.00;;;13.60;98.20;;;;;;5029575;28;20562;-75
2022/05/24 06:23:49;;;;;;;1.60;1.10;;;13.60;98.20;;;;;;5026117;28;20513;-76
2022/05/24 06:26:18;;;;;;;1.50;1.00;;;13.60;98.20;;;;;;5020676;28;20525;-77
2022/05/24 06:28:45;;;;;;;1.57;1.10;;;13.60;98.20;;;;;;5031975;28;20537;-76
2022/05/24 06:31:12;;;;;;;1.50;1.00;;;13.60;98.20;;;;;;5036080;28;20949;-76
2022/05/24 06:33:39;;;;;;;1.50;1.00;;;13.70;98.20;;;;;;5025610;28;20932;-76
2022/05/24 06:36:06;;;;;;;1.50;1.00;;;13.60;98.20;;;;;;5035669;28;20837;-76
2022/05/24 06:38:35;;;;;;;1.50;0.90;;;13.60;98.20;;;;;;5031457;28;20540;-77
2022/05/24 06:41:04;;;;;;;1.50;1.00;;;13.60;98.20;;;;;;5034279;28;20557;-76
2022/05/24 06:43:31;;;;;;;1.53;1.10;;;13.60;98.20;;;;;;5025603;28;20467;-77
2022/05/24 06:45:58;;;;;;;1.50;1.00;;;13.60;98.20;;;;;;5028069;28;21132;-77
2022/05/24 06:48:25;;;;;;;1.50;1.00;;;13.70;98.20;;;;;;5027959;28;20515;-76
2022/05/24 06:50:52;;;;;;;1.57;1.10;;;13.70;98.20;;;;;;5035656;28;21193;-77
2022/05/24 06:53:19;;;;;;;1.50;0.97;;;13.70;98.20;;;;;;5036171;28;20556;-76
2022/05/24 06:55:46;;;;;;;1.50;1.00;;;13.80;98.20;;;;;;5037356;28;20501;-75
2022/05/24 06:58:14;;;;;;;1.50;1.00;;;13.90;98.20;;;;;;5030478;28;20495;-75
2022/05/24 07:03:25;;;;;;;1.50;1.00;;;14.10;98.20;;;;;;5023944;28;20598;-75
2022/05/24 07:05:53;;;;;;;1.50;0.90;;;14.20;98.20;;;;;;5032039;28;20562;-75
2022/05/24 07:08:20;;;;;;;1.50;1.00;;;14.30;98.20;;;;;;5029836;28;20487;-75
2022/05/24 07:10:47;;;;;;;1.50;1.00;;;14.40;98.20;;;;;;5028359;28;20463;-76
2022/05/24 07:13:18;;;;;;;1.50;1.00;;;14.50;98.20;;;;;;5033647;28;20493;-74
2022/05/24 07:15:46;;;;;;;1.50;1.00;;;14.50;98.20;;;;;;5035311;28;20686;-75
2022/05/24 07:18:13;;;;;;;1.53;1.00;;;14.70;98.20;;;;;;5030195;28;20483;-75
2022/05/24 07:20:41;;;;;;;1.50;1.00;;;14.80;98.20;;;;;;5034299;28;21354;-76
2022/05/24 07:23:11;;;;;;;1.50;1.00;;;14.80;98.20;;;;;;5039831;28;20469;-75
2022/05/24 07:25:39;;;;;;;1.50;1.00;;;15.00;98.20;;;;;;5029159;28;20739;-75
2022/05/24 07:28:07;;;;;;;1.50;1.10;;;15.10;98.20;;;;;;5025597;28;20490;-75
2022/05/24 07:30:35;;;;;;;1.50;1.00;;;15.10;98.20;;;;;;5027510;28;20899;-75
2022/05/24 07:33:02;;;;;;;1.50;0.90;;;15.20;98.20;;;;;;5035154;28;20490;-75
2022/05/24 07:35:30;;;;;;;1.60;1.20;;;15.30;98.20;;;;;;5027706;28;20586;-75
2022/05/24 07:37:56;;;;;;;1.50;0.90;;;15.40;98.20;;;;;;5035377;28;20533;-75
2022/05/24 07:46:00;;;;;;;1.60;1.10;;;16.50;98.20;;;;;;5036035;28;20962;-76
2022/05/24 07:48:27;;;;;;;1.50;0.90;;;16.90;98.20;;;;;;5044590;28;20528;-76
2022/05/24 07:50:54;;;;;;;1.50;0.90;;;17.10;98.20;;;;;;5035122;28;20517;-76
2022/05/24 07:53:21;;;;;;;1.50;0.90;;;17.40;98.20;;;;;;5035131;28;20557;-75
2022/05/24 07:55:48;;;;;;;1.50;0.90;;;17.40;98.20;;;;;;5028733;28;20494;-75
2022/05/24 08:00:45;;;;;;;1.50;0.90;;;17.70;98.20;;;;;;4996819;28;20908;-76
2022/05/24 08:03:13;;;;;;;1.50;0.90;;;17.80;98.20;;;;;;4998920;28;20495;-75
2022/05/24 08:05:40;;;;;;;1.50;0.90;;;17.80;97.70;;;;;;4999052;28;20809;-76
2022/05/24 08:08:09;;;;;;;1.50;0.90;;;17.80;98.00;;;;;;4989090;28;20606;-75
2022/05/24 08:10:38;;;;;;;1.60;1.10;;;17.70;97.60;;;;;;4980714;28;20950;-76
2022/05/24 08:13:08;;;;;;;1.50;0.90;;;17.60;98.20;;;;;;4983697;28;20540;-76
2022/05/24 08:15:35;;;;;;;1.50;0.90;;;17.70;98.00;;;;;;4970440;28;20494;-76
2022/05/24 08:18:02;;;;;;;1.53;1.00;;;17.70;98.20;;;;;;4983126;28;20489;-76
2022/05/24 08:20:31;;;;;;;1.50;0.90;;;17.70;96.00;;;;;;4980733;28;20520;-76
2022/05/24 08:22:59;;;;;;;1.50;0.90;;;17.70;95.70;;;;;;4977611;28;20493;-75
2022/05/24 08:25:27;;;;;;;1.50;0.90;;;17.80;96.10;;;;;;4974533;28;20470;-79
2022/05/24 08:27:55;;;;;;;1.50;1.00;;;17.90;96.20;;;;;;4976235;28;20630;-78
2022/05/24 08:30:23;;;;;;;1.50;0.93;;;18.00;94.70;;;;;;4983287;28;20761;-77
2022/05/24 08:32:50;;;;;;;1.50;0.90;;;18.00;94.90;;;;;;4978403;28;20507;-76
2022/05/24 08:35:19;;;;;;;1.50;1.00;;;17.90;94.20;;;;;;4978062;28;20496;-76
2022/05/24 08:37:48;;;;;;;1.50;0.90;;;17.90;95.00;;;;;;4980356;28;20895;-76
2022/05/24 08:40:17;;;;;;;1.50;0.90;;;18.00;94.70;;;;;;4979981;28;20465;-77
2022/05/24 08:43:12;;;;;;;1.50;0.90;;;18.10;93.00;;;;;;4968437;28;21139;-77
2022/05/24 08:48:40;;;;;;;1.50;0.90;;;17.80;92.70;;;;;;4981560;28;20800;-75
2022/05/24 08:51:13;;;;;;;1.50;0.90;;;17.70;93.00;;;;;;4975513;28;20608;-76
2022/05/24 08:53:45;;;;;;;1.50;1.00;;;17.70;93.80;;;;;;4973244;28;20466;-74
2022/05/24 08:56:17;;;;;;;1.50;0.90;;;17.80;93.20;;;;;;4975971;28;20521;-78
2022/05/24 08:58:50;;;;;;;1.50;0.90;;;17.80;92.30;;;;;;4980260;28;20947;-76
2022/05/24 09:01:22;;;;;;;1.50;0.90;;;17.80;93.10;;;;;;4969995;28;20466;-75
2022/05/24 09:03:49;;;;;;;1.50;0.90;;;17.90;92.40;;;;;;4979779;28;21330;-76
2022/05/24 09:06:32;;;;;;;1.43;0.90;;;17.80;92.00;;;;;;4975967;28;20481;-76
2022/05/24 09:09:08;;;;;;;1.50;0.90;;;17.70;91.90;;;;;;4977209;28;21579;-75
2022/05/24 09:11:47;;;;;;;1.40;0.90;;;17.50;91.90;;;;;;4977493;28;20465;-75
2022/05/24 09:14:22;;;;;;;1.50;0.90;;;17.40;93.80;;;;;;4981352;28;20468;-75
2022/05/24 09:16:58;;;;;;;1.50;0.90;;;17.30;93.90;;;;;;4981436;28;20572;-75
2022/05/24 09:19:30;;;;;;;1.50;1.00;;;17.30;94.20;;;;;;4981968;28;20806;-76
2022/05/24 09:21:57;;;;;;;1.50;0.90;;;17.30;94.00;;;;;;4969817;28;20580;-76
2022/05/24 09:24:41;;;;;;;1.50;0.90;;;17.30;94.20;;;;;;4979876;28;20745;-74
2022/05/24 09:27:15;;;;;;;1.50;1.13;;;17.40;95.10;;;;;;4978240;28;20493;-73
2022/05/24 09:30:02;;;;;;;1.47;0.90;;;17.60;92.80;;;;;;4983806;28;20488;-75
2022/05/24 09:32:38;;;;;;;1.47;0.90;;;17.80;92.10;;;;;;4978148;28;20504;-75
2022/05/24 09:35:21;;;;;;;1.50;0.90;;;17.90;92.00;;;;;;4972790;28;20500;-75
2022/05/24 09:38:08;;;;;;;1.50;0.90;;;18.00;91.60;;;;;;4972336;28;20488;-76
2022/05/24 09:40:51;;;;;;;1.50;0.90;;;18.20;91.00;;;;;;4978633;28;20462;-78
2022/05/24 09:43:26;;;;;;;1.50;0.90;;;18.30;90.20;;;;;;4975637;28;20496;-76
2022/05/24 09:45:57;;;;;;;1.50;0.90;;;18.30;89.80;;;;;;4979696;28;20469;-76
2022/05/24 09:48:27;;;;;;;1.50;0.90;;;18.30;89.50;;;;;;4979572;28;20495;-75
2022/05/24 09:50:55;;;;;;;1.50;0.90;;;18.20;89.70;;;;;;4966391;28;20510;-76
2022/05/24 09:53:26;;;;;;;1.50;0.90;;;18.10;91.10;;;;;;4991095;28;20552;-76
2022/05/24 09:55:59;;;;;;;1.50;0.90;;;18.10;90.70;;;;;;4971943;28;20482;-75
2022/05/24 09:58:30;;;;;;;1.47;0.90;;;18.20;89.30;;;;;;4974053;28;20485;-75
2022/05/24 10:00:59;;;;;;;1.47;0.90;;;18.30;89.10;;;;;;4975580;28;20484;-76
2022/05/24 10:03:30;;;;;;;1.50;0.90;;;18.40;89.10;;;;;;4975154;28;20497;-77
2022/05/24 10:06:16;;;;;;;1.47;0.90;;;18.50;89.00;;;;;;4976953;28;20564;-75
2022/05/24 10:08:46;;;;;;;1.50;0.90;;;18.60;88.50;;;;;;4972590;28;20584;-75
2022/05/24 10:11:25;;;;;;;1.50;0.90;;;18.70;89.30;;;;;;4976592;28;20560;-75
2022/05/24 10:14:06;;;;;;;1.50;0.90;;;18.80;88.70;;;;;;4980465;28;20536;-76
2022/05/24 10:16:38;;;;;;;1.50;0.90;;;19.00;88.10;;;;;;4968589;28;20565;-75
2022/05/24 10:19:22;;;;;;;1.50;0.90;;;19.10;87.00;;;;;;4976236;28;20485;-75
2022/05/24 10:21:58;;;;;;;1.50;0.90;;;19.20;87.10;;;;;;4974859;28;20493;-75
2022/05/24 10:24:32;;;;;;;1.50;0.90;;;19.30;85.80;;;;;;4983568;28;20468;-75
2022/05/24 10:27:08;;;;;;;1.50;0.90;;;19.40;85.40;;;;;;4968328;28;20470;-75
2022/05/24 10:29:47;;;;;;;1.50;0.90;;;19.50;85.40;;;;;;4981409;28;20490;-75
2022/05/24 10:40:47;;;;;;;1.50;0.90;;;19.50;84.30;;;;;;4974471;28;20499;-74
2022/05/24 10:43:27;;;;;;;1.50;0.90;;;19.70;84.20;;;;;;4973310;28;20465;-75
2022/05/24 10:46:01;;;;;;;1.50;0.90;;;19.80;82.50;;;;;;4973993;28;20465;-75
2022/05/24 10:48:35;;;;;;;1.50;0.90;;;20.00;82.90;;;;;;4971824;28;20523;-76
2022/05/24 10:51:11;;;;;;;7.80;1.40;;;20.20;82.80;;;;;;4973539;28;20769;-76
2022/05/24 10:53:43;;;;;;;1.50;0.90;;;20.30;83.00;;;;;;4976423;28;20561;-76
2022/05/24 10:56:21;;;;;;;1.50;0.90;;;20.40;80.60;;;;;;4968707;28;20498;-76
2022/05/24 10:58:52;;;;;;;1.50;0.90;;;20.50;81.10;;;;;;4975688;28;20546;-76
2022/05/24 11:01:26;;;;;;;1.50;0.90;;;20.60;80.80;;;;;;4966447;28;20568;-76
2022/05/24 11:03:59;;;;;;;1.50;0.90;;;20.60;79.70;;;;;;4982522;28;20525;-75
2022/05/24 11:06:30;;;;;;;1.50;0.90;;;21.00;79.70;;;;;;4978528;28;20461;-76
2022/05/24 11:09:06;;;;;;;1.50;0.90;;;21.20;79.50;;;;;;4972702;28;20541;-76
2022/05/24 11:11:42;;;;;;;1.50;0.90;;;21.30;78.40;;;;;;4974529;28;20524;-76
2022/05/24 11:14:14;;;;;;;1.50;0.90;;;21.30;77.40;;;;;;4973309;28;20583;-76
2022/05/24 11:16:43;;;;;;;1.50;0.90;;;21.30;77.80;;;;;;4967321;28;20497;-77
2022/05/24 11:19:15;;;;;;;1.50;0.90;;;21.30;77.70;;;;;;4975284;28;20510;-77
2022/05/24 11:21:48;;;;;;;1.50;0.90;;;21.30;78.10;;;;;;4972693;28;20469;-76
2022/05/24 11:24:24;;;;;;;1.47;0.90;;;21.20;78.30;;;;;;4980034;28;20519;-76
2022/05/24 11:26:55;;;;;;;1.40;0.90;;;21.00;78.80;;;;;;4970956;28;20554;-77
2022/05/24 11:29:30;;;;;;;1.47;0.90;;;20.90;78.20;;;;;;4974934;28;20702;-77
2022/05/24 11:32:02;;;;;;;1.50;0.90;;;20.80;78.90;;;;;;4974632;28;20510;-76
2022/05/24 11:34:31;;;;;;;1.43;0.90;;;20.90;78.40;;;;;;4979422;28;20525;-77
2022/05/24 11:37:14;;;;;;;1.50;0.90;;;20.90;78.30;;;;;;4977455;28;21070;-77
2022/05/24 11:39:53;;;;;;;1.47;0.90;;;20.90;79.00;;;;;;4975600;28;20505;-76
2022/05/24 11:42:42;;;;;;;1.50;0.90;;;20.80;78.50;;;;;;4984062;28;20507;-77
2022/05/24 11:46:04;;;;;;;1.47;0.90;;;20.70;78.30;;;;;;4973390;28;20484;-77
2022/05/24 11:48:53;;;;;;;1.47;0.83;;;20.60;78.60;;;;;;4977309;28;20783;-76
2022/05/24 11:51:36;;;;;;;1.47;0.90;;;20.60;78.70;;;;;;4969272;28;20547;-77
2022/05/24 11:54:05;;;;;;;1.50;0.90;;;20.80;79.40;;;;;;4979937;28;21024;-77
2022/05/24 11:56:33;;;;;;;1.50;0.90;;;21.00;79.20;;;;;;4972465;28;20511;-77
2022/05/24 11:59:03;;;;;;;1.50;0.90;;;20.90;79.20;;;;;;4984654;28;20500;-77
2022/05/24 12:01:51;;;;;;;1.50;0.90;;;21.00;80.80;;;;;;4983104;28;20469;-77
2022/05/24 12:10:52;;;;;;;1.50;0.90;;;21.30;79.20;;;;;;4965396;28;20456;-77
2022/05/24 12:13:41;;;;;;;1.47;0.90;;;21.40;78.00;;;;;;4979138;28;20522;-77
2022/05/24 12:16:35;;;;;;;1.50;0.90;;;21.60;76.70;;;;;;4974677;28;20507;-77
2022/05/24 12:19:04;;;;;;;1.47;0.90;;;21.70;75.40;;;;;;4984807;28;20621;-77
2022/05/24 12:21:49;;;;;;;1.70;1.30;;;21.60;76.20;;;;;;4975072;28;20839;-76
2022/05/24 12:24:47;;;;;;;1.50;0.90;;;21.50;76.20;;;;;;4983784;28;20972;-77
2022/05/24 12:27:51;;;;;;;1.50;0.90;;;21.30;78.30;;;;;;4967016;28;20478;-76
2022/05/24 12:30:36;;;;;;;1.50;0.83;;;21.30;78.20;;;;;;4975488;28;21063;-76
2022/05/24 12:33:12;;;;;;;1.50;0.87;;;21.30;77.50;;;;;;4975645;28;20540;-77
2022/05/24 12:35:48;;;;;;;1.50;0.90;;;21.30;77.30;;;;;;4979080;28;21292;-77
2022/05/24 12:38:23;;;;;;;1.47;0.90;;;21.40;77.40;;;;;;4971808;28;20580;-77
2022/05/24 12:40:51;;;;;;;1.50;0.90;;;21.90;76.20;;;;;;4976367;28;20568;-77
2022/05/24 12:43:19;;;;;;;1.47;0.83;;;22.00;75.90;;;;;;4977324;28;20582;-77
2022/05/24 12:45:48;;;;;;;1.50;0.83;;;22.00;75.70;;;;;;4982026;28;20481;-77
2022/05/24 12:48:35;;;;;;;1.50;0.90;;;21.80;76.60;;;;;;4967794;28;20899;-76
2022/05/24 12:51:05;;;;;;;1.47;0.90;;;21.60;77.40;;;;;;4966936;28;20532;-77
2022/05/24 12:53:34;;;;;;;1.50;0.97;;;21.50;77.50;;;;;;4981782;28;20474;-77
2022/05/24 12:56:05;;;;;;;1.47;0.90;;;21.40;77.60;;;;;;4973887;28;20501;-77
2022/05/24 12:58:35;;;;;;;1.40;0.90;;;21.40;77.60;;;;;;4979596;28;20492;-77
2022/05/24 13:01:21;;;;;;;1.50;0.90;;;21.30;78.20;;;;;;4966960;28;20469;-77
2022/05/24 13:03:53;;;;;;;1.47;0.90;;;21.30;78.00;;;;;;4991897;28;20511;-74
2022/05/24 13:06:22;;;;;;;1.50;0.90;;;21.20;77.80;;;;;;4979515;28;20852;-75
2022/05/24 13:09:23;;;;;;;1.50;1.00;;;21.00;78.50;;;;;;4974117;28;20563;-75
2022/05/24 13:11:54;;;;;;;1.47;0.90;;;20.90;77.90;;;;;;4978649;28;20472;-75
2022/05/24 13:14:49;;;;;;;1.50;0.90;;;20.80;79.60;;;;;;4972698;28;20500;-75
2022/05/24 13:17:19;;;;;;;1.47;0.90;;;20.60;78.30;;;;;;4971192;28;21201;-75
2022/05/24 13:19:53;;;;;;;1.50;0.90;;;20.50;79.50;;;;;;4974411;28;20860;-75
2022/05/24 13:22:22;;;;;;;1.50;0.90;;;20.30;79.90;;;;;;4971370;28;21182;-75
2022/05/24 13:24:57;;;;;;;1.50;0.90;;;20.20;80.40;;;;;;4975627;28;20814;-78
2022/05/24 13:27:34;;;;;;;1.50;0.90;;;20.10;79.50;;;;;;4979705;28;20978;-77
2022/05/24 13:35:32;;;;;;;1.43;0.90;;;19.70;84.50;;;;;;4978165;28;21052;-75
2022/05/24 13:38:02;;;;;;;1.40;0.90;;;19.80;85.20;;;;;;4970169;28;20509;-76
2022/05/24 13:40:40;;;;;;;1.47;0.90;;;20.00;85.10;;;;;;4967961;28;20458;-75
2022/05/24 13:43:07;;;;;;;1.50;0.90;;;20.30;83.90;;;;;;4970641;28;20765;-76
2022/05/24 13:45:36;;;;;;;1.47;0.80;;;20.80;82.20;;;;;;4982557;28;20527;-75
2022/05/24 13:48:25;;;;;;;1.50;0.90;;;21.30;80.70;;;;;;4984719;28;20945;-75
2022/05/24 13:51:04;;;;;;;1.50;0.90;;;21.90;79.50;;;;;;4966484;28;20469;-77
2022/05/24 13:53:39;;;;;;;1.50;0.90;;;22.50;79.10;;;;;;4975023;28;20480;-75
2022/05/24 13:56:16;;;;;;;1.50;0.90;;;23.10;77.40;;;;;;4979261;28;20488;-75
2022/05/24 13:58:46;;;;;;;1.50;0.90;;;23.60;74.50;;;;;;4982368;28;20579;-75
2022/05/24 14:03:50;;;;;;;1.50;0.90;;;24.10;67.30;;;;;;4960070;28;20482;-77